createdAt,value
2023-03-23T15:58:09.719Z,2.10
2023-03-23T16:00:46.209Z,2.10
2023-03-23T16:03:27.698Z,2.00
2023-03-23T16:06:03.432Z,2.20
2023-03-23T16:08:40.913Z,2.20
2023-03-23T16:11:18.357Z,2.10
2023-03-23T16:13:53.044Z,2.30
2023-03-23T16:16:34.299Z,2.20
2023-03-23T16:19:09.845Z,2.00
2023-03-23T16:21:50.102Z,2.30
2023-03-23T16:24:26.144Z,2.10
2023-03-23T16:27:03.743Z,2.10
2023-03-23T16:29:59.809Z,1.90
2023-03-23T16:35:08.789Z,2.20
2023-03-23T16:37:47.279Z,2.20
2023-03-23T16:40:24.379Z,2.30
2023-03-23T16:42:59.133Z,2.10
2023-03-23T16:45:34.576Z,2.00
2023-03-23T16:48:10.946Z,2.20
2023-03-23T16:50:46.938Z,2.10
2023-03-23T16:53:21.861Z,2.00
2023-03-23T16:55:58.363Z,1.80
2023-03-23T16:58:33.791Z,2.20
2023-03-23T17:01:10.119Z,2.10
2023-03-23T17:03:44.911Z,2.30
2023-03-23T17:06:20.332Z,2.00
2023-03-23T17:08:55.830Z,2.00
2023-03-23T17:11:31.483Z,1.90
2023-03-23T17:14:07.121Z,1.90
2023-03-23T17:16:42.520Z,1.90
2023-03-23T17:19:18.205Z,2.00
2023-03-23T17:21:53.888Z,2.10
2023-03-23T17:24:29.707Z,2.30
2023-03-23T17:27:05.220Z,1.90
2023-03-23T17:29:40.953Z,2.10
2023-03-23T17:32:20.905Z,2.20
2023-03-23T17:35:00.887Z,1.90
2023-03-23T17:37:37.731Z,2.10
2023-03-23T17:40:15.259Z,2.20
2023-03-23T17:42:50.932Z,2.10
2023-03-23T17:45:25.586Z,2.40
2023-03-23T17:48:01.251Z,2.10
2023-03-23T17:50:37.660Z,2.10
2023-03-23T17:53:14.623Z,2.20
2023-03-23T17:55:49.844Z,2.20
2023-03-23T17:58:26.426Z,2.20
2023-03-23T18:01:01.556Z,2.10
2023-03-23T18:03:38.482Z,2.20
2023-03-23T18:06:14.085Z,2.40
2023-03-23T18:08:48.865Z,2.30
2023-03-23T18:11:24.560Z,2.40
2023-03-23T18:14:00.231Z,2.30
2023-03-23T18:16:35.876Z,2.30
2023-03-23T18:19:11.974Z,2.30
2023-03-23T18:21:47.623Z,2.50
2023-03-23T18:24:24.096Z,2.40
2023-03-23T18:27:00.230Z,2.30
2023-03-23T18:29:35.277Z,2.60
2023-03-23T18:32:11.368Z,2.60
2023-03-23T18:34:47.718Z,2.50
2023-03-23T18:37:23.390Z,2.70
2023-03-23T18:39:59.377Z,2.50
2023-03-23T18:42:35.051Z,2.80
2023-03-23T18:45:12.671Z,2.60
2023-03-23T18:47:47.397Z,2.50
2023-03-23T18:50:23.438Z,2.80
2023-03-23T18:52:59.420Z,2.80
2023-03-23T18:55:35.499Z,2.80
2023-03-23T18:58:12.712Z,3.30
2023-03-23T19:00:50.025Z,4.20
2023-03-23T19:03:25.060Z,6.90
2023-03-23T19:06:06.836Z,7.10
2023-03-23T19:08:45.317Z,7.20
2023-03-23T19:11:25.400Z,7.60
2023-03-23T19:14:03.796Z,7.50
2023-03-23T19:16:43.148Z,8.00
2023-03-23T19:19:21.509Z,7.80
2023-03-23T19:22:00.287Z,7.80
2023-03-23T19:24:40.446Z,7.20
2023-03-23T19:27:18.079Z,7.30
2023-03-23T19:29:54.342Z,6.90
2023-03-23T19:32:33.746Z,7.30
2023-03-23T19:35:10.555Z,6.90
2023-03-23T19:37:48.042Z,7.20
2023-03-23T19:40:39.051Z,6.60
2023-03-23T19:43:18.844Z,6.40
2023-03-23T19:45:54.700Z,6.20
2023-03-23T19:48:31.475Z,6.00
2023-03-23T19:51:09.293Z,6.30
2023-03-23T19:53:46.398Z,5.70
2023-03-23T19:56:24.020Z,5.70
2023-03-23T19:59:01.805Z,5.80
2023-03-23T20:01:38.023Z,5.20
2023-03-23T20:04:16.162Z,5.30
2023-03-23T20:06:52.837Z,4.90
2023-03-23T20:09:32.635Z,4.80
2023-03-23T20:12:09.642Z,4.70
2023-03-23T20:14:47.155Z,4.40
2023-03-23T20:17:25.674Z,4.50
2023-03-23T20:20:06.349Z,4.30
2023-03-23T20:22:44.614Z,4.30
2023-03-23T20:25:21.730Z,4.20
2023-03-23T20:27:58.914Z,4.40
2023-03-23T20:30:36.923Z,4.00
2023-03-23T20:33:11.973Z,3.80
2023-03-23T20:35:50.692Z,3.90
2023-03-23T20:38:26.123Z,3.80
2023-03-23T20:41:05.406Z,3.90
2023-03-23T20:43:42.588Z,3.50
2023-03-23T20:46:19.052Z,3.70
2023-03-23T20:48:55.627Z,3.80
2023-03-23T20:51:33.438Z,3.50
2023-03-23T20:54:12.042Z,3.10
2023-03-23T20:56:48.385Z,3.30
2023-03-23T20:59:24.507Z,3.10
2023-03-23T21:02:01.043Z,3.10
2023-03-23T21:04:39.860Z,3.10
2023-03-23T21:07:18.081Z,2.90
2023-03-23T21:09:53.632Z,2.90
2023-03-23T21:12:29.174Z,2.70
2023-03-23T21:15:06.407Z,3.10
2023-03-23T21:17:42.698Z,2.80
2023-03-23T21:20:20.772Z,2.60
2023-03-23T21:22:58.417Z,2.70
2023-03-23T21:25:36.116Z,2.40
2023-03-23T21:28:15.392Z,3.00
2023-03-23T21:30:52.569Z,2.30
2023-03-23T21:33:30.020Z,2.60
2023-03-23T21:36:05.280Z,2.60
2023-03-23T21:38:42.819Z,2.70
2023-03-23T21:41:19.986Z,2.50
2023-03-23T21:43:55.230Z,2.30
2023-03-23T21:46:33.948Z,2.70
2023-03-23T21:49:14.284Z,2.20
2023-03-23T21:51:51.845Z,2.30
2023-03-23T21:54:32.149Z,2.20
2023-03-23T21:57:08.421Z,2.10
2023-03-23T21:59:44.695Z,2.40
2023-03-23T22:02:24.060Z,2.50
2023-03-23T22:05:02.889Z,2.40
2023-03-23T22:07:40.126Z,2.60
2023-03-23T22:10:16.489Z,2.40
2023-03-23T22:12:55.575Z,2.30
2023-03-23T22:15:32.136Z,2.30
2023-03-23T22:18:07.443Z,2.30
2023-03-23T22:20:47.741Z,2.10
2023-03-23T22:23:25.142Z,2.40
2023-03-23T22:26:02.116Z,2.60
2023-03-23T22:28:38.271Z,2.20
2023-03-23T22:31:19.775Z,2.30
2023-03-23T22:33:58.390Z,2.40
2023-03-23T22:36:34.427Z,2.60
2023-03-23T22:39:10.397Z,2.60
2023-03-23T22:41:47.934Z,2.40
2023-03-23T22:44:24.559Z,2.30
2023-03-23T22:47:03.533Z,2.30
2023-03-23T22:49:41.192Z,2.40
2023-03-23T22:52:20.019Z,2.50
2023-03-23T22:54:57.597Z,2.20
2023-03-23T22:57:35.552Z,2.20
2023-03-23T23:00:15.518Z,2.50
2023-03-23T23:02:54.187Z,2.40
2023-03-23T23:05:30.015Z,2.20
2023-03-23T23:08:12.373Z,2.40
2023-03-23T23:10:54.006Z,2.50
2023-03-23T23:13:36.053Z,2.60
2023-03-23T23:16:14.341Z,2.90
2023-03-23T23:18:53.040Z,2.70
2023-03-23T23:21:34.310Z,2.80
2023-03-23T23:24:10.881Z,2.70
2023-03-23T23:26:48.884Z,2.50
2023-03-23T23:29:26.842Z,2.80
2023-03-23T23:32:03.512Z,2.90
2023-03-23T23:34:38.856Z,2.90
2023-03-23T23:37:15.431Z,2.80
2023-03-23T23:39:52.308Z,2.90
2023-03-23T23:42:30.510Z,2.70
2023-03-23T23:45:07.851Z,3.00
2023-03-23T23:47:44.977Z,3.10
2023-03-23T23:50:21.148Z,2.90
2023-03-23T23:52:58.792Z,2.90
2023-03-23T23:55:39.764Z,3.10
2023-03-23T23:58:17.358Z,2.80
